Pagrindinis puslapis
METAR-TAF:

METAR-TAF

Oro uostai :

Linatės oro uostas

Milanas, Italija

platuma: 45-26N, ilguma: 009-17E, Aukštis: 107 m

Dabartinis oras

Ataskaita buvo paskelbta 21 minutes, ne 01:50 UTC
Vėjas 2 kt iš Pietvakarių
Temperatūra 11°C
Drėgmė 87%
Slėgis 1018 hPa
Matomumas 10 km arba daugiau
Rūkas lopais

METAR: LIML 220150Z AUTO 23002KT 9999 BCFG BKN084/// OVC110/// 11/09 Q1018

Laikas: 04:11 (02:11 UTC)

Prognozė

Ataskaita buvo paskelbta 3 valandos ir 11 minutes, ne 23:00 UTC
Prognozė galioja nuo 22 metu 00 UTC su 22 metu 24 UTC
Vėjas 5 kt nuo kintamojo kryptimis
Matomumas 10 km arba daugiau
Mažai debesys ne aukštis 4000 ft
Tapsmas
nuo 22 metu 14 UTC su 22 metu 16 UTC
Vėjas 10 kt iš Rytų

TAF: LIML 212300Z 2200/2224 VRB05KT 9999 FEW040 BECMG 2214/2216 09010KT

Orai ataskaitas ir orų prognozės (METAR, TAF).

turimą stotys yra geltonos ir raudonos taškus žemėlapyje.

Perkelti pele per norėdami pamatyti stoties vardą.

Tada spustelėkite, norėdami matyti oro stebėjimo ir prognozės.

Norėdami pakeisti žemėlapį: spustelėkite ant žalios mygtukų su juodo kryžiaus žemyn,; žalią mygtuką su brūkšneliu, jei norite nutolinti; arba žalių rodyklių gretimoms žemėlapius.


METAR-TAF: